createdAt,value
2019-02-19T00:00:50.676Z,27.60
2019-02-19T00:10:56.795Z,50.40
2019-02-19T00:21:03.082Z,35.77
2019-02-19T00:31:08.983Z,27.93
2019-02-19T00:41:15.174Z,32.70
2019-02-19T00:51:22.346Z,37.23
2019-02-19T01:01:29.384Z,29.93
2019-02-19T01:11:35.191Z,28.90
2019-02-19T01:21:41.316Z,26.27
2019-02-19T01:31:49.569Z,68.33
2019-02-19T01:41:56.099Z,25.67
2019-02-19T01:52:01.995Z,24.87
2019-02-19T02:02:07.793Z,24.83
2019-02-19T02:12:13.660Z,24.27
2019-02-19T02:22:19.608Z,29.47
2019-02-19T02:32:26.018Z,27.23
2019-02-19T02:42:32.194Z,21.77
2019-02-19T02:52:38.138Z,23.77
2019-02-19T03:02:43.901Z,29.77
2019-02-19T03:12:49.752Z,24.13
2019-02-19T03:22:55.670Z,25.37
2019-02-19T03:33:01.886Z,30.57
2019-02-19T03:43:08.082Z,28.10
2019-02-19T03:53:13.879Z,22.43
2019-02-19T04:03:19.790Z,23.47
2019-02-19T04:13:25.650Z,24.50
2019-02-19T04:23:31.811Z,24.00
2019-02-19T04:33:37.719Z,21.30
2019-02-19T04:43:43.625Z,26.10
2019-02-19T04:53:49.951Z,19.60
2019-02-19T05:03:55.950Z,23.27
2019-02-19T05:14:01.854Z,23.57
2019-02-19T05:24:07.657Z,23.33
2019-02-19T05:34:14.881Z,21.03
2019-02-19T05:44:21.197Z,22.63
2019-02-19T05:54:27.322Z,22.13
2019-02-19T06:04:33.622Z,21.00
2019-02-19T06:14:39.744Z,21.87
2019-02-19T06:24:45.540Z,21.43
2019-02-19T06:34:51.348Z,27.13
2019-02-19T06:44:58.202Z,21.63
2019-02-19T06:55:04.589Z,20.83
2019-02-19T07:05:12.011Z,19.77
2019-02-19T07:15:17.729Z,21.20
2019-02-19T07:25:23.436Z,19.03
2019-02-19T07:35:29.438Z,19.87
2019-02-19T07:45:35.236Z,16.23
2019-02-19T07:55:40.948Z,20.57
2019-02-19T08:05:46.959Z,20.23
2019-02-19T08:15:53.895Z,20.97
2019-02-19T08:25:59.978Z,20.73
2019-02-19T08:36:06.054Z,22.67
2019-02-19T08:46:11.989Z,22.83
2019-02-19T08:56:17.805Z,22.00
2019-02-19T09:06:23.942Z,22.63
2019-02-19T09:16:30.232Z,24.80
2019-02-19T09:26:39.020Z,25.37
2019-02-19T09:36:45.640Z,29.90
2019-02-19T09:46:51.774Z,27.00
2019-02-19T09:56:57.637Z,27.70
2019-02-19T10:07:03.554Z,27.97
2019-02-19T10:17:09.270Z,30.60
2019-02-19T10:27:14.966Z,31.97
2019-02-19T10:37:21.024Z,27.80
2019-02-19T10:47:26.919Z,34.10
2019-02-19T10:57:32.771Z,35.10
2019-02-19T11:07:38.942Z,27.93
2019-02-19T11:17:44.612Z,29.70
2019-02-19T11:27:52.277Z,30.87
2019-02-19T11:37:58.530Z,26.97
2019-02-19T11:48:04.827Z,28.60
2019-02-19T11:58:10.761Z,25.10
2019-02-19T12:08:17.490Z,24.37
2019-02-19T12:18:23.194Z,23.30
2019-02-19T12:28:29.111Z,26.33
2019-02-19T12:38:34.898Z,26.63
2019-02-19T12:48:40.898Z,23.57
2019-02-19T12:58:46.887Z,22.87
2019-02-19T13:08:52.594Z,21.63
2019-02-19T13:19:03.489Z,26.43
2019-02-19T13:29:05.963Z,24.13
2019-02-19T13:39:11.758Z,24.20
2019-02-19T13:49:17.758Z,24.73
2019-02-19T13:59:23.981Z,23.90
2019-02-19T14:09:30.105Z,26.07
2019-02-19T14:19:43.685Z,28.87
2019-02-19T14:29:57.051Z,25.20
2019-02-19T14:40:21.070Z,21.97
2019-02-19T14:50:44.498Z,23.47
2019-02-19T15:01:00.643Z,22.00
2019-02-19T15:11:07.882Z,20.70
2019-02-19T15:21:33.896Z,20.37
2019-02-19T15:31:41.216Z,17.83
2019-02-19T15:41:48.752Z,17.70
2019-02-19T15:51:56.294Z,19.93
2019-02-19T16:02:06.919Z,20.73
2019-02-19T16:12:17.085Z,14.43
2019-02-19T16:22:33.831Z,20.57
2019-02-19T16:32:56.968Z,11.70
2019-02-19T16:43:04.283Z,16.27
2019-02-19T16:53:17.183Z,18.20
2019-02-19T17:03:24.733Z,12.60
2019-02-19T17:13:32.252Z,12.77
2019-02-19T17:23:55.819Z,16.03
2019-02-19T17:34:12.051Z,11.97
2019-02-19T17:44:19.395Z,12.87
2019-02-19T17:54:26.618Z,14.37
2019-02-19T18:04:34.018Z,14.57
2019-02-19T18:14:41.315Z,15.90
2019-02-19T18:24:46.989Z,13.80
2019-02-19T18:34:53.914Z,13.93
2019-02-19T18:44:59.808Z,11.17
2019-02-19T18:55:06.918Z,8.67
2019-02-19T19:05:13.266Z,9.67
2019-02-19T19:15:19.512Z,9.80
2019-02-19T19:25:25.413Z,8.97
2019-02-19T19:35:31.598Z,8.50
2019-02-19T19:45:37.407Z,11.03
2019-02-19T19:55:44.985Z,10.13
2019-02-19T20:05:50.795Z,8.13
2019-02-19T20:15:57.157Z,7.13
2019-02-19T20:26:03.232Z,7.90
2019-02-19T20:36:09.274Z,7.90
2019-02-19T20:46:15.536Z,9.40
2019-02-19T20:56:21.633Z,9.07
2019-02-19T21:06:27.611Z,7.63
2019-02-19T21:16:34.373Z,7.27
2019-02-19T21:26:40.798Z,9.53
2019-02-19T21:36:49.954Z,8.57
2019-02-19T21:46:57.475Z,7.63
2019-02-19T21:57:03.333Z,6.53
2019-02-19T22:07:10.409Z,6.30
2019-02-19T22:17:16.237Z,10.43
2019-02-19T22:27:22.112Z,10.37
2019-02-19T22:37:28.098Z,7.17
2019-02-19T22:47:35.572Z,9.40
2019-02-19T22:57:41.480Z,15.17
2019-02-19T23:07:54.440Z,11.10
2019-02-19T23:18:01.149Z,9.60
2019-02-19T23:28:07.330Z,11.47
2019-02-19T23:38:13.282Z,13.10
2019-02-19T23:48:20.954Z,12.07
2019-02-19T23:58:26.736Z,19.77
